Terminal Aerodrome Forecast
Issued by NWS

Home | Current Version | Previous Version | Text Only | Print | Product List | Glossary Off
Versions: 1 2 3 4 5 6 7 8 9 10 11 12 13 14 15 16

000
FTUS43 KICT 110600 AAA
TAFRSL
TAF AMD
KRSL 110611Z 1106/1206 16013G20KT P6SM OVC012
     FM111500 19016G24KT P6SM SKC
     FM111900 18019G27KT P6SM SKC
     FM120100 17014KT P6SM SKC=

USA.gov is the U.S. government's official web portal to all federal, state and local government web resources and services.